Time;durP1;ratioP1;P1;durP2;ratioP2;P2;SDS_P1;SDS_P2;PMS_P1;PMS_P2;Temp;Humidity;BMP_temperature;BMP_pressure;BME280_temperature;BME280_humidity;BME280_pressure;Samples;Min_cycle;Max_cycle;Signal;HPM_P1;HPM_P2
2023/10/09 00:02:11;;;;;;;126.05;55.90;;;;;;;;;;4973559;28;20065;-83
2023/10/09 00:04:47;;;;;;;124.47;57.17;;;;;;;;;;4965502;28;20039;-80
2023/10/09 00:07:16;;;;;;;125.28;54.85;;;;;;;;;;4954511;28;20027;-80
2023/10/09 00:09:50;;;;;;;127.05;56.25;;;;;;;;;;4961566;28;20102;-82
2023/10/09 00:12:25;;;;;;;112.85;55.47;;;;;;;;;;4972621;28;20053;-80
2023/10/09 00:15:07;;;;;;;103.20;52.83;;;;;;;;;;4965313;28;20424;-82
2023/10/09 00:17:33;;;;;;;114.18;54.38;;;;;;;;;;4954023;28;20039;-82
2023/10/09 00:20:07;;;;;;;114.68;56.15;;;;;;;;;;4961921;28;20381;-80
2023/10/09 00:22:38;;;;;;;111.05;54.95;;;;;;;;;;4961656;28;20043;-82
2023/10/09 00:25:21;;;;;;;119.22;55.50;;;;;;;;;;4961135;28;20086;-82
2023/10/09 00:27:50;;;;;;;109.55;53.75;;;;;;;;;;4966261;28;20031;-82
2023/10/09 00:30:29;;;;;;;111.68;53.70;;;;;;;;;;4949694;28;20489;-82
2023/10/09 00:35:37;;;;;;;113.50;53.78;;;;;;;;;;4964871;28;20083;-82
2023/10/09 00:38:14;;;;;;;113.05;53.58;;;;;;;;;;4966825;28;20042;-82
2023/10/09 00:40:47;;;;;;;108.18;50.80;;;;;;;;;;4962802;28;20047;-83
2023/10/09 00:43:14;;;;;;;95.65;50.17;;;;;;;;;;4957958;28;20087;-81
2023/10/09 00:45:43;;;;;;;98.18;50.97;;;;;;;;;;4963356;28;20111;-81
2023/10/09 00:48:10;;;;;;;98.75;49.70;;;;;;;;;;4963648;28;20057;-82
2023/10/09 00:50:38;;;;;;;92.93;48.50;;;;;;;;;;4949809;28;20031;-82
2023/10/09 00:53:12;;;;;;;93.10;48.55;;;;;;;;;;4948600;28;20057;-80
2023/10/09 00:55:45;;;;;;;98.90;49.47;;;;;;;;;;4973624;28;20040;-80
2023/10/09 00:58:23;;;;;;;90.50;47.97;;;;;;;;;;4980822;28;20058;-79
2023/10/09 01:00:52;;;;;;;88.30;48.65;;;;;;;;;;4982684;28;20050;-81
2023/10/09 01:03:20;;;;;;;91.38;47.40;;;;;;;;;;4953899;28;20042;-81
2023/10/09 01:11:34;;;;;;;91.32;48.90;;;;;;;;;;4958961;28;20035;-82
2023/10/09 01:14:11;;;;;;;93.30;48.58;;;;;;;;;;4946763;28;20042;-81
2023/10/09 01:16:42;;;;;;;88.68;46.90;;;;;;;;;;4946154;28;20054;-81
2023/10/09 01:19:13;;;;;;;;;;;;;;;;;;4959089;28;20027;-80
2023/10/09 01:21:42;;;;;;;86.90;47.38;;;;;;;;;;4960319;28;19960;-82
2023/10/09 01:24:08;;;;;;;79.43;46.28;;;;;;;;;;4966675;28;20039;-83
2023/10/09 01:26:47;;;;;;;82.47;45.83;;;;;;;;;;4948952;28;20038;-81
2023/10/09 01:29:21;;;;;;;74.68;43.67;;;;;;;;;;4959085;28;20240;-81
2023/10/09 01:32:00;;;;;;;81.35;45.33;;;;;;;;;;4961029;28;20050;-80
2023/10/09 01:37:05;;;;;;;72.70;41.30;;;;;;;;;;4966020;28;20026;-80
2023/10/09 01:39:39;;;;;;;73.25;42.72;;;;;;;;;;4972377;28;20007;-78
2023/10/09 01:42:06;;;;;;;75.75;42.67;;;;;;;;;;4973738;28;20026;-79
2023/10/09 01:44:39;;;;;;;76.95;41.75;;;;;;;;;;4958357;28;20118;-80
2023/10/09 01:47:13;;;;;;;71.65;41.10;;;;;;;;;;4977458;28;20373;-80
2023/10/09 01:49:43;;;;;;;68.80;43.42;;;;;;;;;;4975920;28;20049;-80
2023/10/09 01:52:16;;;;;;;66.28;39.92;;;;;;;;;;4957298;28;20063;-82
2023/10/09 01:54:48;;;;;;;68.22;39.83;;;;;;;;;;4960465;28;20141;-81
2023/10/09 01:57:15;;;;;;;71.65;41.17;;;;;;;;;;4932349;28;20050;-83
2023/10/09 01:59:48;;;;;;;67.30;41.15;;;;;;;;;;4947628;28;20027;-82
2023/10/09 02:02:25;;;;;;;71.68;40.67;;;;;;;;;;4964547;28;20019;-83
2023/10/09 02:07:44;;;;;;;62.90;39.03;;;;;;;;;;4963941;28;20046;-81
2023/10/09 02:10:32;;;;;;;66.75;40.00;;;;;;;;;;4943898;28;20684;-82
2023/10/09 02:12:59;;;;;;;66.60;39.80;;;;;;;;;;4962805;28;20054;-82
2023/10/09 02:21:01;;;;;;;68.93;39.22;;;;;;;;;;4962785;28;20056;-81
2023/10/09 02:23:39;;;;;;;65.50;36.33;;;;;;;;;;4958269;28;20031;-82
2023/10/09 02:26:07;;;;;;;63.95;37.30;;;;;;;;;;4973376;28;20027;-81
2023/10/09 02:28:34;;;;;;;59.70;35.67;;;;;;;;;;4966150;28;20035;-80
2023/10/09 02:31:09;;;;;;;67.00;37.05;;;;;;;;;;4970162;28;20038;-80
2023/10/09 02:33:36;;;;;;;59.55;35.67;;;;;;;;;;4972501;28;20037;-80
2023/10/09 02:36:06;;;;;;;61.88;35.70;;;;;;;;;;4959329;28;20039;-81
2023/10/09 02:38:36;;;;;;;58.75;35.15;;;;;;;;;;4936537;28;20031;-82
2023/10/09 02:43:34;;;;;;;57.10;35.83;;;;;;;;;;4978436;28;20302;-83
2023/10/09 02:46:13;;;;;;;60.95;34.75;;;;;;;;;;4957477;28;20034;-82
2023/10/09 02:48:45;;;;;;;57.88;34.47;;;;;;;;;;4959257;28;20450;-81
2023/10/09 02:51:17;;;;;;;67.25;35.45;;;;;;;;;;4933935;28;20030;-81
2023/10/09 02:53:43;;;;;;;58.97;35.38;;;;;;;;;;4949519;28;20537;-81
2023/10/09 02:56:12;;;;;;;62.65;35.47;;;;;;;;;;4953791;28;20507;-81
2023/10/09 02:58:40;;;;;;;58.75;35.30;;;;;;;;;;4971061;28;20055;-80
2023/10/09 03:01:10;;;;;;;60.03;35.42;;;;;;;;;;4965263;28;20031;-80
2023/10/09 03:03:38;;;;;;;62.20;35.60;;;;;;;;;;4952069;28;20428;-81
2023/10/09 03:06:11;;;;;;;61.85;35.25;;;;;;;;;;4952750;28;20027;-80
2023/10/09 03:08:38;;;;;;;57.92;32.90;;;;;;;;;;4940543;28;20070;-81
2023/10/09 03:11:05;;;;;;;57.88;33.17;;;;;;;;;;4965636;28;20031;-82
2023/10/09 03:13:33;;;;;;;53.08;33.42;;;;;;;;;;4964125;28;20495;-82
2023/10/09 03:16:02;;;;;;;51.50;32.38;;;;;;;;;;4968192;28;20511;-82
2023/10/09 03:18:28;;;;;;;51.80;30.35;;;;;;;;;;4971386;28;20242;-82
2023/10/09 03:20:55;;;;;;;50.15;30.95;;;;;;;;;;4972556;28;20050;-80
2023/10/09 03:23:22;;;;;;;51.38;30.38;;;;;;;;;;4973981;28;20063;-80
2023/10/09 03:25:49;;;;;;;53.35;29.67;;;;;;;;;;4981949;28;20042;-80
2023/10/09 03:28:15;;;;;;;55.08;29.35;;;;;;;;;;4964886;28;20050;-80
2023/10/09 03:30:46;;;;;;;48.67;30.38;;;;;;;;;;4976140;28;20027;-81
2023/10/09 03:33:13;;;;;;;;;;;;;;;;;;4954857;28;20038;-79
2023/10/09 03:35:39;;;;;;;47.22;28.67;;;;;;;;;;4962726;28;19925;-82
2023/10/09 03:38:18;;;;;;;46.60;28.17;;;;;;;;;;4967064;28;20182;-82
2023/10/09 03:40:47;;;;;;;49.45;29.02;;;;;;;;;;4952111;28;20019;-79
2023/10/09 03:43:14;;;;;;;49.45;28.55;;;;;;;;;;4966728;28;20330;-82
2023/10/09 03:45:54;;;;;;;43.10;27.98;;;;;;;;;;4965579;28;20085;-82
2023/10/09 03:50:47;;;;;;;48.08;27.73;;;;;;;;;;4968032;28;20066;-81
2023/10/09 03:53:13;;;;;;;42.50;25.10;;;;;;;;;;4963875;28;20032;-82
2023/10/09 03:55:40;;;;;;;44.28;24.48;;;;;;;;;;4941919;28;20174;-80
2023/10/09 03:58:08;;;;;;;41.10;23.50;;;;;;;;;;4952036;28;20062;-80
2023/10/09 04:00:44;;;;;;;44.05;24.02;;;;;;;;;;4966131;28;20035;-82
2023/10/09 04:03:11;;;;;;;43.22;24.30;;;;;;;;;;4967186;28;20027;-80
2023/10/09 04:05:41;;;;;;;41.15;23.88;;;;;;;;;;4943821;28;20038;-79
2023/10/09 04:08:12;;;;;;;40.90;24.83;;;;;;;;;;4932322;28;20034;-79
2023/10/09 04:10:50;;;;;;;44.08;24.80;;;;;;;;;;4966590;28;20043;-80
2023/10/09 04:13:22;;;;;;;37.80;22.48;;;;;;;;;;4961979;28;20058;-79
2023/10/09 04:15:49;;;;;;;39.38;24.02;;;;;;;;;;4968326;28;20034;-79
2023/10/09 04:18:16;;;;;;;45.83;24.17;;;;;;;;;;4970922;28;20030;-80
2023/10/09 04:23:59;;;;;;;44.03;23.30;;;;;;;;;;4963443;28;20018;-80
2023/10/09 04:26:20;;;;;;;38.72;22.85;;;;;;;;;;4960895;28;20023;-80
2023/10/09 04:28:51;;;;;;;38.33;22.77;;;;;;;;;;4966630;28;20043;-81
2023/10/09 04:31:19;;;;;;;41.30;22.58;;;;;;;;;;4949674;28;20496;-80
2023/10/09 04:33:53;;;;;;;42.30;23.75;;;;;;;;;;4952532;28;20070;-80
2023/10/09 04:42:19;;;;;;;42.17;21.33;;;;;;;;;;4975609;28;20027;-80
2023/10/09 04:44:22;;;;;;;40.60;22.20;;;;;;;;;;4966293;28;20042;-78
2023/10/09 04:58:23;;;;;;;39.33;20.45;;;;;;;;;;4963336;28;20117;-78
2023/10/09 05:03:09;;;;;;;32.90;19.10;;;;;;;;;;4981768;28;20038;-79
2023/10/09 05:08:20;;;;;;;35.47;18.70;;;;;;;;;;4949182;28;20065;-79
2023/10/09 05:16:07;;;;;;;34.22;16.05;;;;;;;;;;4952398;28;20039;-81
2023/10/09 05:18:36;;;;;;;30.23;16.88;;;;;;;;;;4967270;28;20042;-79
2023/10/09 05:23:47;;;;;;;25.67;15.27;;;;;;;;;;4971896;28;20283;-79
2023/10/09 05:29:18;;;;;;;33.28;16.02;;;;;;;;;;4962045;28;20042;-79
2023/10/09 05:31:55;;;;;;;29.25;15.52;;;;;;;;;;4967091;28;20041;-79
2023/10/09 05:34:22;;;;;;;30.60;14.88;;;;;;;;;;4937157;28;20038;-78
2023/10/09 05:36:49;;;;;;;30.50;16.13;;;;;;;;;;4945538;28;20046;-81
2023/10/09 05:39:22;;;;;;;29.75;16.48;;;;;;;;;;4966809;28;20042;-81
2023/10/09 05:41:59;;;;;;;30.77;15.38;;;;;;;;;;4960539;28;20137;-80
2023/10/09 05:47:29;;;;;;;30.52;15.32;;;;;;;;;;4972877;28;20019;-79
2023/10/09 05:50:01;;;;;;;26.60;15.45;;;;;;;;;;4965534;28;20034;-82
2023/10/09 06:08:24;;;;;;;37.45;17.00;;;;;;;;;;4963504;28;20039;-80
2023/10/09 06:11:05;;;;;;;25.80;15.45;;;;;;;;;;4946075;28;20022;-79
2023/10/09 06:13:45;;;;;;;28.08;14.68;;;;;;;;;;4947040;28;20034;-82
2023/10/09 06:16:31;;;;;;;26.77;15.38;;;;;;;;;;4966129;28;20038;-80
2023/10/09 06:45:54;;;;;;;27.10;15.00;;;;;;;;;;4956690;28;20130;-80
2023/10/09 06:51:07;;;;;;;28.67;15.90;;;;;;;;;;4974799;28;20066;-79
2023/10/09 06:58:58;;;;;;;33.92;14.68;;;;;;;;;;4973433;28;20039;-79
2023/10/09 07:03:54;;;;;;;26.40;13.27;;;;;;;;;;4973592;28;20031;-79
2023/10/09 07:06:24;;;;;;;22.45;12.77;;;;;;;;;;4979280;28;20037;-80
2023/10/09 07:17:15;;;;;;;27.38;12.18;;;;;;;;;;4943694;28;20059;-78
2023/10/09 07:24:56;;;;;;;28.75;12.80;;;;;;;;;;4972590;28;20108;-79
2023/10/09 07:27:48;;;;;;;21.48;12.02;;;;;;;;;;4959814;28;20023;-79
2023/10/09 07:33:16;;;;;;;25.42;11.77;;;;;;;;;;4978979;28;20456;-79
2023/10/09 07:38:19;;;;;;;27.10;11.30;;;;;;;;;;4975532;28;20042;-79
2023/10/09 07:40:56;;;;;;;26.83;12.68;;;;;;;;;;4973553;28;20085;-78
2023/10/09 07:48:48;;;;;;;22.00;10.98;;;;;;;;;;4984658;28;20074;-80
2023/10/09 07:51:16;;;;;;;22.65;10.77;;;;;;;;;;4966367;28;20150;-79
2023/10/09 07:53:45;;;;;;;28.05;11.35;;;;;;;;;;4964047;28;20070;-79
2023/10/09 07:56:19;;;;;;;25.10;10.90;;;;;;;;;;4972968;28;20084;-78
2023/10/09 07:58:48;;;;;;;23.02;10.27;;;;;;;;;;4963269;28;20047;-79
2023/10/09 08:01:35;;;;;;;18.95;9.73;;;;;;;;;;4967427;28;20161;-79
2023/10/09 08:04:11;;;;;;;23.95;10.23;;;;;;;;;;4961535;28;20071;-79
2023/10/09 08:06:45;;;;;;;24.67;10.60;;;;;;;;;;4962793;28;20030;-78
2023/10/09 08:19:55;;;;;;;23.30;11.07;;;;;;;;;;4987726;28;20103;-79
2023/10/09 08:24:57;;;;;;;32.88;11.50;;;;;;;;;;4955583;28;20101;-79
2023/10/09 08:27:37;;;;;;;22.83;10.15;;;;;;;;;;4973323;28;20122;-78
2023/10/09 08:33:00;;;;;;;22.30;10.52;;;;;;;;;;4953408;28;20065;-78
2023/10/09 08:35:47;;;;;;;23.40;10.55;;;;;;;;;;4963680;28;20035;-79
2023/10/09 08:38:13;;;;;;;22.73;9.95;;;;;;;;;;4970520;28;20034;-79
2023/10/09 08:40:43;;;;;;;26.52;10.10;;;;;;;;;;4972752;28;20043;-78
2023/10/09 08:43:09;;;;;;;23.60;9.43;;;;;;;;;;4958148;28;20030;-79
2023/10/09 08:45:41;;;;;;;24.20;10.23;;;;;;;;;;4972539;28;20030;-79
2023/10/09 08:48:08;;;;;;;24.67;10.15;;;;;;;;;;4969641;28;20063;-79
2023/10/09 08:50:36;;;;;;;19.63;9.48;;;;;;;;;;4966559;28;20043;-79
2023/10/09 08:53:03;;;;;;;20.42;9.35;;;;;;;;;;4961010;28;20034;-80
2023/10/09 08:55:29;;;;;;;24.13;10.15;;;;;;;;;;4963562;28;20039;-78
2023/10/09 08:57:58;;;;;;;22.85;9.80;;;;;;;;;;4960315;28;20492;-79
2023/10/09 09:00:24;;;;;;;21.55;9.32;;;;;;;;;;4965689;28;20049;-77
2023/10/09 09:02:53;;;;;;;21.05;9.38;;;;;;;;;;4947634;28;20062;-77
2023/10/09 09:05:23;;;;;;;23.77;10.57;;;;;;;;;;4954047;28;20030;-80
2023/10/09 09:07:49;;;;;;;;;;;;;;;;;;4973632;28;20046;-78
2023/10/09 09:10:21;;;;;;;18.25;9.32;;;;;;;;;;4974767;28;19949;-78
2023/10/09 09:13:10;;;;;;;23.77;9.55;;;;;;;;;;4949488;28;20058;-79
2023/10/09 09:15:39;;;;;;;22.30;10.25;;;;;;;;;;4959139;28;20030;-79
2023/10/09 09:18:08;;;;;;;20.92;9.98;;;;;;;;;;4958609;28;20256;-79
2023/10/09 09:20:39;;;;;;;22.30;10.00;;;;;;;;;;4963745;28;20027;-79
2023/10/09 09:23:12;;;;;;;26.45;9.70;;;;;;;;;;4961422;28;20031;-80
2023/10/09 09:25:45;;;;;;;26.20;9.05;;;;;;;;;;4964336;28;20030;-79
2023/10/09 09:28:21;;;;;;;26.50;8.55;;;;;;;;;;4963064;28;20046;-79
2023/10/09 09:30:51;;;;;;;24.38;9.00;;;;;;;;;;4961150;28;20030;-77
2023/10/09 09:33:20;;;;;;;22.05;8.60;;;;;;;;;;4961097;28;20031;-80
2023/10/09 09:36:02;;;;;;;18.55;8.73;;;;;;;;;;4978243;28;20035;-79
2023/10/09 09:38:41;;;;;;;16.85;8.93;;;;;;;;;;4960988;28;20038;-79
2023/10/09 09:41:08;;;;;;;20.35;8.50;;;;;;;;;;4963630;28;20069;-80
2023/10/09 09:43:35;;;;;;;16.60;8.63;;;;;;;;;;4977319;28;20087;-78
2023/10/09 09:46:07;;;;;;;16.50;8.63;;;;;;;;;;4963635;28;20103;-79
2023/10/09 09:48:39;;;;;;;22.25;8.88;;;;;;;;;;4973097;28;20067;-78
2023/10/09 09:51:08;;;;;;;19.67;8.18;;;;;;;;;;4962821;28;20223;-78
2023/10/09 09:53:35;;;;;;;19.02;8.60;;;;;;;;;;4970639;28;20130;-80
2023/10/09 09:56:02;;;;;;;19.30;8.07;;;;;;;;;;4959629;28;20095;-81
2023/10/09 10:01:26;;;;;;;17.08;8.10;;;;;;;;;;4963918;28;20031;-80
2023/10/09 10:04:11;;;;;;;16.88;8.15;;;;;;;;;;4949546;29;20031;-80
2023/10/09 10:06:40;;;;;;;18.27;7.43;;;;;;;;;;4955619;28;20027;-80
2023/10/09 10:09:07;;;;;;;18.08;7.65;;;;;;;;;;4955645;28;20026;-81
2023/10/09 10:11:51;;;;;;;16.98;8.27;;;;;;;;;;4943579;28;20043;-80
2023/10/09 10:14:31;;;;;;;19.45;8.05;;;;;;;;;;4970258;28;20117;-80
2023/10/09 10:17:16;;;;;;;18.63;8.10;;;;;;;;;;4974361;28;20027;-80
2023/10/09 10:22:47;;;;;;;17.52;8.32;;;;;;;;;;4965832;28;20030;-78
2023/10/09 10:25:32;;;;;;;15.82;8.25;;;;;;;;;;4974933;28;20051;-79
2023/10/09 10:28:28;;;;;;;15.18;7.68;;;;;;;;;;4967729;28;20045;-80
2023/10/09 10:30:54;;;;;;;15.55;8.05;;;;;;;;;;4965221;28;20028;-78
2023/10/09 10:33:22;;;;;;;19.02;7.55;;;;;;;;;;4970298;28;20060;-78
2023/10/09 10:38:25;;;;;;;14.95;7.75;;;;;;;;;;4967739;28;20026;-77
2023/10/09 10:40:57;;;;;;;20.38;8.02;;;;;;;;;;4972942;28;20023;-78
2023/10/09 10:46:44;;;;;;;17.15;8.10;;;;;;;;;;4951446;28;20018;-78
2023/10/09 10:51:40;;;;;;;16.33;7.78;;;;;;;;;;4977491;28;20046;-81
2023/10/09 10:56:57;;;;;;;15.30;8.52;;;;;;;;;;4969487;28;20055;-78
2023/10/09 10:59:26;;;;;;;17.55;8.18;;;;;;;;;;4965911;28;20459;-79
2023/10/09 11:01:53;;;;;;;24.92;8.30;;;;;;;;;;4973806;28;20459;-78
2023/10/09 11:12:44;;;;;;;16.27;7.35;;;;;;;;;;4893640;29;20037;-80
2023/10/09 11:17:58;;;;;;;24.23;8.68;;;;;;;;;;4966497;28;20034;-80
2023/10/09 11:20:26;;;;;;;23.73;8.93;;;;;;;;;;4965123;28;20061;-80
2023/10/09 11:25:39;;;;;;;34.50;7.95;;;;;;;;;;4966185;28;20038;-80
2023/10/09 11:28:49;;;;;;;20.92;7.57;;;;;;;;;;4961894;28;20041;-80
2023/10/09 11:31:16;;;;;;;15.93;7.50;;;;;;;;;;4965015;28;20106;-80
2023/10/09 11:33:51;;;;;;;20.20;8.32;;;;;;;;;;4951318;28;20027;-79
2023/10/09 11:36:21;;;;;;;20.83;8.18;;;;;;;;;;4964449;28;20043;-78
2023/10/09 11:38:49;;;;;;;;;;;;;;;;;;4969536;28;20042;-79
2023/10/09 11:41:24;;;;;;;16.40;7.35;;;;;;;;;;4947456;28;19914;-81
2023/10/09 11:43:57;;;;;;;19.60;7.32;;;;;;;;;;4962502;28;20031;-78
2023/10/09 11:54:33;;;;;;;18.23;7.90;;;;;;;;;;4970225;28;20038;-79
2023/10/09 11:57:02;;;;;;;15.77;6.93;;;;;;;;;;4974211;28;20047;-80
2023/10/09 11:59:37;;;;;;;20.23;7.57;;;;;;;;;;4973549;28;20070;-79
2023/10/09 12:02:13;;;;;;;17.58;7.97;;;;;;;;;;4991218;28;20027;-79
2023/10/09 12:04:42;;;;;;;23.27;8.40;;;;;;;;;;4968168;28;20035;-78
2023/10/09 12:07:10;;;;;;;21.17;7.65;;;;;;;;;;4955531;28;20114;-79
2023/10/09 12:09:39;;;;;;;21.45;8.20;;;;;;;;;;4957322;28;20038;-79
2023/10/09 12:12:07;;;;;;;13.90;7.13;;;;;;;;;;4982743;28;20015;-80
2023/10/09 12:14:33;;;;;;;19.30;7.95;;;;;;;;;;4982443;28;20065;-79
2023/10/09 12:17:06;;;;;;;17.15;8.00;;;;;;;;;;4967558;28;20039;-79
2023/10/09 12:19:39;;;;;;;20.45;8.40;;;;;;;;;;4951309;29;20051;-80
2023/10/09 12:22:06;;;;;;;21.15;7.25;;;;;;;;;;4958514;28;20023;-80
2023/10/09 12:24:33;;;;;;;16.60;7.22;;;;;;;;;;4981182;28;20030;-81
2023/10/09 12:27:00;;;;;;;13.93;6.75;;;;;;;;;;4988155;28;20030;-78
2023/10/09 12:29:33;;;;;;;18.92;8.18;;;;;;;;;;4965186;28;20078;-79
2023/10/09 12:31:59;;;;;;;16.35;7.32;;;;;;;;;;4968451;28;20030;-82
2023/10/09 12:34:29;;;;;;;16.23;7.30;;;;;;;;;;4973021;28;20030;-82
2023/10/09 12:36:56;;;;;;;14.32;6.80;;;;;;;;;;4956203;28;20050;-82
2023/10/09 12:39:22;;;;;;;17.58;8.35;;;;;;;;;;4970286;28;20186;-81
2023/10/09 12:41:53;;;;;;;16.73;8.20;;;;;;;;;;4975279;28;20030;-81
2023/10/09 12:44:20;;;;;;;22.52;8.00;;;;;;;;;;4973591;28;20058;-80
2023/10/09 12:46:52;;;;;;;23.45;8.95;;;;;;;;;;4988548;28;20039;-80
2023/10/09 12:49:25;;;;;;;24.67;8.63;;;;;;;;;;4984959;28;20059;-79
2023/10/09 12:52:17;;;;;;;27.42;8.65;;;;;;;;;;4981957;28;20078;-80
2023/10/09 12:54:46;;;;;;;18.13;8.15;;;;;;;;;;4957651;28;20027;-78
2023/10/09 12:57:15;;;;;;;20.55;8.63;;;;;;;;;;4971257;28;20055;-79
2023/10/09 12:59:45;;;;;;;22.13;8.05;;;;;;;;;;4972503;28;20031;-80
2023/10/09 13:02:13;;;;;;;21.50;8.55;;;;;;;;;;4961328;28;20485;-80
2023/10/09 13:04:42;;;;;;;20.60;8.07;;;;;;;;;;4966775;28;20081;-80
2023/10/09 13:07:08;;;;;;;13.85;8.10;;;;;;;;;;4973244;28;20027;-79
2023/10/09 13:09:35;;;;;;;17.80;8.35;;;;;;;;;;4979152;28;20038;-79
2023/10/09 13:12:01;;;;;;;24.60;8.40;;;;;;;;;;4986368;28;20042;-80
2023/10/09 13:14:28;;;;;;;22.50;8.75;;;;;;;;;;4984109;28;21463;-80
2023/10/09 13:16:54;;;;;;;21.02;7.63;;;;;;;;;;4962003;28;20439;-80
2023/10/09 13:19:24;;;;;;;22.55;8.63;;;;;;;;;;4969022;28;20488;-80
2023/10/09 13:21:50;;;;;;;23.83;8.82;;;;;;;;;;4969602;28;20117;-79
2023/10/09 13:24:16;;;;;;;20.23;7.15;;;;;;;;;;4954043;28;20031;-80
2023/10/09 13:26:45;;;;;;;21.17;7.63;;;;;;;;;;4939624;28;20504;-80
2023/10/09 13:29:11;;;;;;;22.40;8.38;;;;;;;;;;4966973;28;20412;-80
2023/10/09 13:31:39;;;;;;;18.20;7.50;;;;;;;;;;4953746;29;20472;-79
2023/10/09 13:34:14;;;;;;;20.08;8.02;;;;;;;;;;4970104;28;20053;-80
2023/10/09 13:36:49;;;;;;;16.90;7.43;;;;;;;;;;4962594;28;20038;-79
2023/10/09 13:39:24;;;;;;;20.85;7.75;;;;;;;;;;4972255;28;20038;-80
2023/10/09 13:41:59;;;;;;;19.25;7.60;;;;;;;;;;4969976;28;20045;-79
2023/10/09 13:44:29;;;;;;;21.63;7.85;;;;;;;;;;4972238;28;20038;-81
2023/10/09 13:47:04;;;;;;;19.70;8.23;;;;;;;;;;4972698;28;20103;-82
2023/10/09 13:49:31;;;;;;;21.33;7.82;;;;;;;;;;4971351;28;20043;-80
2023/10/09 13:51:57;;;;;;;19.33;8.20;;;;;;;;;;4973998;28;20027;-80
2023/10/09 13:57:06;;;;;;;21.60;8.13;;;;;;;;;;4968871;28;20175;-80
2023/10/09 13:59:35;;;;;;;22.23;8.45;;;;;;;;;;4979709;28;20035;-81
2023/10/09 14:02:07;;;;;;;21.42;9.48;;;;;;;;;;4992468;28;20118;-80
2023/10/09 14:04:34;;;;;;;24.02;9.30;;;;;;;;;;4951532;28;20349;-81
2023/10/09 14:07:01;;;;;;;23.98;8.77;;;;;;;;;;4952453;28;20031;-81
2023/10/09 14:09:31;;;;;;;25.20;8.60;;;;;;;;;;4960658;28;20052;-82
2023/10/09 14:12:07;;;;;;;23.88;10.05;;;;;;;;;;4969123;28;20034;-80
2023/10/09 14:14:38;;;;;;;17.02;8.45;;;;;;;;;;4972986;28;20419;-80
2023/10/09 14:17:13;;;;;;;21.38;8.70;;;;;;;;;;4953470;28;20077;-80
2023/10/09 14:19:50;;;;;;;23.08;8.55;;;;;;;;;;4972843;28;20539;-81
2023/10/09 14:22:24;;;;;;;18.65;9.65;;;;;;;;;;4967106;28;20031;-80
2023/10/09 14:24:57;;;;;;;21.55;8.52;;;;;;;;;;4966922;28;20041;-80
2023/10/09 14:27:35;;;;;;;25.40;8.73;;;;;;;;;;4965316;28;20055;-80
2023/10/09 14:30:01;;;;;;;20.08;9.57;;;;;;;;;;4971669;28;20492;-79
2023/10/09 14:32:42;;;;;;;19.60;9.10;;;;;;;;;;4981756;28;20031;-79
2023/10/09 14:35:13;;;;;;;22.38;8.90;;;;;;;;;;4986281;28;20027;-80
2023/10/09 14:37:42;;;;;;;28.75;9.88;;;;;;;;;;4951952;28;20122;-79
2023/10/09 14:40:20;;;;;;;19.17;8.98;;;;;;;;;;4972860;28;20027;-80
2023/10/09 14:42:47;;;;;;;24.63;8.73;;;;;;;;;;4990127;28;20050;-79
2023/10/09 14:45:16;;;;;;;32.08;10.18;;;;;;;;;;4995828;28;20094;-80
2023/10/09 14:47:42;;;;;;;25.40;8.95;;;;;;;;;;4992304;28;20067;-80
2023/10/09 14:50:09;;;;;;;30.35;9.32;;;;;;;;;;4992080;28;20070;-80
2023/10/09 14:52:38;;;;;;;42.58;10.38;;;;;;;;;;4977849;28;20027;-80
2023/10/09 14:55:05;;;;;;;40.88;10.57;;;;;;;;;;4964633;28;20031;-81
2023/10/09 14:57:33;;;;;;;29.85;10.00;;;;;;;;;;4953162;29;20047;-81
2023/10/09 15:00:01;;;;;;;36.90;10.35;;;;;;;;;;4954513;29;20050;-80
2023/10/09 15:02:27;;;;;;;46.00;10.48;;;;;;;;;;4966346;28;20396;-78
2023/10/09 15:04:53;;;;;;;33.35;10.25;;;;;;;;;;4973690;28;20035;-80
2023/10/09 15:07:20;;;;;;;27.92;9.43;;;;;;;;;;4956889;28;20040;-79
2023/10/09 15:09:47;;;;;;;24.80;10.82;;;;;;;;;;4975837;28;20047;-84
2023/10/09 15:12:15;;;;;;;25.77;9.98;;;;;;;;;;4973601;28;20039;-82
2023/10/09 15:14:41;;;;;;;28.88;14.15;;;;;;;;;;4958032;28;20450;-84
2023/10/09 15:17:07;;;;;;;20.73;10.57;;;;;;;;;;4968238;28;20107;-80
2023/10/09 15:19:33;;;;;;;26.70;9.52;;;;;;;;;;4955047;28;20742;-81
2023/10/09 15:22:00;;;;;;;30.83;12.15;;;;;;;;;;4966310;28;20085;-80
2023/10/09 15:24:27;;;;;;;26.33;10.82;;;;;;;;;;4947563;28;20035;-80
2023/10/09 15:26:57;;;;;;;22.02;10.10;;;;;;;;;;4966293;28;20396;-80
2023/10/09 15:29:27;;;;;;;26.88;10.60;;;;;;;;;;4970239;28;20038;-80
2023/10/09 15:32:04;;;;;;;29.45;10.45;;;;;;;;;;4973686;28;20067;-81
2023/10/09 15:34:36;;;;;;;36.88;11.02;;;;;;;;;;4983819;28;20043;-80
2023/10/09 15:37:09;;;;;;;35.40;11.25;;;;;;;;;;4966598;28;20034;-79
2023/10/09 15:39:38;;;;;;;36.95;12.20;;;;;;;;;;4978088;28;20548;-82
2023/10/09 15:42:06;;;;;;;31.95;12.05;;;;;;;;;;4960985;28;20027;-81
2023/10/09 15:44:38;;;;;;;39.92;11.23;;;;;;;;;;4970667;28;20027;-80
2023/10/09 15:47:08;;;;;;;24.63;9.73;;;;;;;;;;4965031;28;20384;-79
2023/10/09 15:49:38;;;;;;;24.77;9.75;;;;;;;;;;4969879;28;20086;-80
2023/10/09 15:52:07;;;;;;;28.15;10.82;;;;;;;;;;4961515;28;20054;-80
2023/10/09 15:54:33;;;;;;;25.00;10.40;;;;;;;;;;4977844;28;20030;-76
2023/10/09 15:57:00;;;;;;;30.48;11.45;;;;;;;;;;4968162;28;20042;-81
2023/10/09 15:59:26;;;;;;;26.98;11.10;;;;;;;;;;4962870;28;20038;-80
2023/10/09 16:01:53;;;;;;;30.83;10.75;;;;;;;;;;4950722;28;20030;-78
2023/10/09 16:04:19;;;;;;;25.73;10.93;;;;;;;;;;4964562;28;20086;-78
2023/10/09 16:06:46;;;;;;;24.25;10.50;;;;;;;;;;4964901;28;20097;-79
2023/10/09 16:09:15;;;;;;;27.75;11.15;;;;;;;;;;4942784;28;20031;-80
2023/10/09 16:11:41;;;;;;;28.50;11.88;;;;;;;;;;4965676;28;20035;-81
2023/10/09 16:14:09;;;;;;;24.45;11.00;;;;;;;;;;4965455;28;20027;-79
2023/10/09 16:16:41;;;;;;;30.40;11.48;;;;;;;;;;4965797;28;20034;-77
2023/10/09 16:19:11;;;;;;;26.00;11.73;;;;;;;;;;4971711;28;20046;-78
2023/10/09 16:21:40;;;;;;;29.08;12.23;;;;;;;;;;4964024;28;20086;-82
2023/10/09 16:24:09;;;;;;;30.90;12.10;;;;;;;;;;4981520;28;20108;-79
2023/10/09 16:26:50;;;;;;;29.88;13.23;;;;;;;;;;4976778;28;20377;-78
2023/10/09 16:29:17;;;;;;;30.55;12.45;;;;;;;;;;4970953;28;20046;-77
2023/10/09 16:31:43;;;;;;;27.52;13.23;;;;;;;;;;4966689;28;20476;-79
2023/10/09 16:34:13;;;;;;;25.85;13.07;;;;;;;;;;4967417;28;20047;-79
2023/10/09 16:36:39;;;;;;;30.67;13.05;;;;;;;;;;4963472;28;20046;-79
2023/10/09 16:39:18;;;;;;;35.13;13.00;;;;;;;;;;4938328;28;20043;-81
2023/10/09 16:41:47;;;;;;;30.95;12.82;;;;;;;;;;4963985;28;20039;-78
2023/10/09 16:44:16;;;;;;;33.15;13.70;;;;;;;;;;4933610;28;20027;-79
2023/10/09 16:46:44;;;;;;;29.13;12.63;;;;;;;;;;4963938;28;20038;-78
2023/10/09 16:49:13;;;;;;;31.48;12.95;;;;;;;;;;4948009;28;20066;-78
2023/10/09 16:51:42;;;;;;;33.92;14.02;;;;;;;;;;4952420;28;20034;-78
2023/10/09 16:54:16;;;;;;;28.45;14.68;;;;;;;;;;4964768;28;20390;-78
2023/10/09 16:56:43;;;;;;;33.88;14.63;;;;;;;;;;4965051;28;20054;-79
2023/10/09 16:59:14;;;;;;;29.02;15.23;;;;;;;;;;4949335;28;20082;-78
2023/10/09 17:01:40;;;;;;;32.42;14.63;;;;;;;;;;4966510;28;20114;-80
2023/10/09 17:04:11;;;;;;;40.53;17.10;;;;;;;;;;4973346;28;20045;-84
2023/10/09 17:06:39;;;;;;;31.02;14.70;;;;;;;;;;4990276;28;20045;-83
2023/10/09 17:09:07;;;;;;;36.95;15.60;;;;;;;;;;4970639;28;20019;-82
2023/10/09 17:11:36;;;;;;;37.72;15.57;;;;;;;;;;4976861;28;20042;-84
2023/10/09 17:14:06;;;;;;;33.75;16.85;;;;;;;;;;4966584;28;21454;-83
2023/10/09 17:16:32;;;;;;;36.13;16.90;;;;;;;;;;4964748;28;20023;-82
2023/10/09 17:19:02;;;;;;;32.15;15.90;;;;;;;;;;4952713;28;20034;-83
2023/10/09 17:21:35;;;;;;;39.45;16.88;;;;;;;;;;4963603;28;20038;-81
2023/10/09 17:24:02;;;;;;;35.28;17.60;;;;;;;;;;4966120;28;20052;-83
2023/10/09 17:26:29;;;;;;;49.80;18.17;;;;;;;;;;4949851;28;20138;-83
2023/10/09 17:28:56;;;;;;;39.10;17.33;;;;;;;;;;4962396;28;20035;-84
2023/10/09 17:31:26;;;;;;;39.13;18.23;;;;;;;;;;4945342;28;20101;-81
2023/10/09 17:33:55;;;;;;;34.17;17.35;;;;;;;;;;4963701;28;21113;-83
2023/10/09 17:36:22;;;;;;;38.33;18.50;;;;;;;;;;4934112;28;20053;-83
2023/10/09 17:38:51;;;;;;;39.42;18.92;;;;;;;;;;4967456;28;20393;-82
2023/10/09 17:41:19;;;;;;;33.72;17.10;;;;;;;;;;4966869;28;20043;-82
2023/10/09 17:43:46;;;;;;;34.22;18.33;;;;;;;;;;4962563;28;20055;-83
2023/10/09 17:46:12;;;;;;;35.20;17.17;;;;;;;;;;4967711;28;20522;-82
2023/10/09 17:48:38;;;;;;;33.97;16.27;;;;;;;;;;4974361;28;20082;-81
2023/10/09 17:51:11;;;;;;;34.42;16.63;;;;;;;;;;4978975;28;20035;-82
2023/10/09 17:53:38;;;;;;;37.05;17.80;;;;;;;;;;4970506;28;20114;-79
2023/10/09 17:56:05;;;;;;;26.98;13.27;;;;;;;;;;4984954;28;20784;-80
2023/10/09 17:58:31;;;;;;;29.90;15.02;;;;;;;;;;4972670;28;20039;-81
2023/10/09 18:00:58;;;;;;;25.58;12.85;;;;;;;;;;4952429;28;20062;-81
2023/10/09 18:03:29;;;;;;;24.55;12.70;;;;;;;;;;4964721;28;20028;-81